Time;durP1;ratioP1;P1;durP2;ratioP2;P2;SDS_P1;SDS_P2;PMS_P1;PMS_P2;Temp;Humidity;BMP_temperature;BMP_pressure;BME280_temperature;BME280_humidity;BME280_pressure;Samples;Min_cycle;Max_cycle;Signal;HPM_P1;HPM_P2
2021/11/30 00:01:34;;;;;;;13.35;7.68;;;;;;;4.84;90.88;97520.94;5028653;28;20132;-58
2021/11/30 00:04:00;;;;;;;13.30;8.23;;;;;;;4.64;88.29;97518.88;5030214;28;20021;-57
2021/11/30 00:06:26;;;;;;;11.23;6.68;;;;;;;5.21;95.21;97515.66;5028593;28;20610;-58
2021/11/30 00:08:58;;;;;;;13.35;7.70;;;;;;;5.35;88.89;97517.03;5029349;28;20388;-58
2021/11/30 00:11:23;;;;;;;14.90;8.70;;;;;;;4.08;86.52;97527.09;5028915;28;20455;-58
2021/11/30 00:13:50;;;;;;;12.93;6.88;;;;;;;4.80;84.30;97525.34;5029444;28;20424;-60
2021/11/30 00:16:16;;;;;;;9.70;5.72;;;;;;;5.34;87.47;97523.91;5028895;28;20095;-57
2021/11/30 00:18:42;;;;;;;14.15;8.13;;;;;;;5.69;94.99;97523.81;5030689;28;20067;-58
2021/11/30 00:21:10;;;;;;;15.20;8.65;;;;;;;5.27;90.68;97524.13;5029800;28;20064;-59
2021/11/30 00:23:37;;;;;;;12.93;6.70;;;;;;;5.37;94.09;97523.00;5030231;28;20112;-59
2021/11/30 00:26:05;;;;;;;9.98;5.32;;;;;;;6.21;91.81;97524.03;5033117;28;20063;-60
2021/11/30 00:28:30;;;;;;;15.45;8.88;;;;;;;5.19;87.71;97527.78;5029373;28;20025;-57
2021/11/30 00:30:56;;;;;;;12.05;6.50;;;;;;;5.97;95.62;97524.75;5030294;28;20029;-58
2021/11/30 00:33:22;;;;;;;11.20;7.15;;;;;;;5.48;96.84;97527.88;5028090;28;20025;-59
2021/11/30 00:35:47;;;;;;;14.68;6.88;;;;;;;7.16;100.00;97530.41;5030962;28;20120;-59
2021/11/30 00:38:13;;;;;;;10.15;6.90;;;;;;;5.95;91.73;97530.81;5028106;28;20026;-58
2021/11/30 00:40:43;;;;;;;12.18;8.05;;;;;;;7.16;93.14;97530.41;5028785;28;20582;-59
2021/11/30 00:43:10;;;;;;;11.77;7.30;;;;;;;6.26;88.83;97535.09;5029990;28;20045;-58
2021/11/30 00:45:39;;;;;;;9.93;6.30;;;;;;;6.40;88.16;97537.25;5030579;28;20494;-59
2021/11/30 00:48:10;;;;;;;11.30;5.47;;;;;;;5.86;95.15;97541.44;5037412;28;20151;-58
2021/11/30 00:50:39;;;;;;;13.98;8.35;;;;;;;7.18;90.43;97550.22;5028114;28;20037;-58
2021/11/30 00:53:05;;;;;;;11.13;7.10;;;;;;;5.78;88.68;97552.00;5026984;28;20024;-59
2021/11/30 00:55:31;;;;;;;12.30;8.02;;;;;;;5.72;88.16;97547.88;5029947;28;20061;-59
2021/11/30 00:57:57;;;;;;;7.85;5.05;;;;;;;6.21;88.18;97549.91;5029733;28;20121;-59
2021/11/30 01:00:22;;;;;;;8.45;5.47;;;;;;;6.73;99.26;97553.47;5029927;28;20108;-60
2021/11/30 01:02:48;;;;;;;6.35;4.10;;;;;;;6.97;91.53;97561.34;5028577;28;20042;-58
2021/11/30 01:05:15;;;;;;;6.70;4.00;;;;;;;6.23;97.14;97550.72;5028220;28;20017;-59
2021/11/30 01:07:41;;;;;;;10.70;6.68;;;;;;;5.61;85.65;97557.69;5029046;28;20099;-59
2021/11/30 01:10:10;;;;;;;5.32;3.22;;;;;;;7.27;100.00;97554.25;5027874;28;20674;-58
2021/11/30 01:12:36;;;;;;;12.10;7.85;;;;;;;5.28;91.71;97551.69;5027144;28;20484;-57
2021/11/30 01:15:05;;;;;;;11.95;7.75;;;;;;;7.27;97.21;97559.44;5027082;28;20031;-59
2021/11/30 01:17:30;;;;;;;12.38;7.32;;;;;;;6.04;90.68;97553.88;5028840;28;20045;-57
2021/11/30 01:19:55;;;;;;;15.32;8.43;;;;;;;5.19;89.52;97553.63;5028533;28;20036;-59
2021/11/30 01:22:21;;;;;;;15.75;9.30;;;;;;;4.83;95.19;97553.69;5028520;28;20048;-58
2021/11/30 01:24:46;;;;;;;13.15;8.18;;;;;;;5.86;97.48;97552.63;5029315;28;20036;-58
2021/11/30 01:27:12;;;;;;;10.20;6.65;;;;;;;5.80;93.38;97555.41;5028274;28;20037;-58
2021/11/30 01:29:38;;;;;;;17.63;10.23;;;;;;;4.53;94.94;97552.72;5028222;28;20281;-59
2021/11/30 01:32:03;;;;;;;13.18;8.50;;;;;;;6.18;99.27;97553.47;5027084;28;20119;-59
2021/11/30 01:34:29;;;;;;;14.57;9.73;;;;;;;6.95;93.12;97563.97;5026362;28;20056;-58
2021/11/30 01:36:55;;;;;;;11.77;7.75;;;;;;;5.77;91.39;97555.47;5026490;28;20072;-59
2021/11/30 01:39:22;;;;;;;15.55;9.77;;;;;;;5.49;89.61;97558.00;5027221;28;20533;-58
2021/11/30 01:41:47;;;;;;;7.20;3.35;;;;;;;6.35;100.00;97558.94;5028498;28;20041;-57
2021/11/30 01:44:29;;;;;;;15.10;8.20;;;;;;;6.56;99.34;97562.63;5027189;28;20035;-60
2021/11/30 01:47:08;;;;;;;15.98;10.30;;;;;;;5.09;84.13;97562.53;5029182;28;20043;-58
2021/11/30 01:49:34;;;;;;;17.42;9.95;;;;;;;5.73;91.41;97567.66;5028670;28;20067;-59
2021/11/30 01:52:06;;;;;;;11.05;6.70;;;;;;;5.29;94.06;97561.13;5027590;28;20846;-58
2021/11/30 01:54:32;;;;;;;16.27;10.18;;;;;;;5.08;89.56;97565.16;5028931;28;20035;-59
2021/11/30 01:57:00;;;;;;;17.10;9.93;;;;;;;5.21;95.89;97572.53;5026546;28;20091;-58
2021/11/30 01:59:26;;;;;;;11.82;7.45;;;;;;;5.53;94.35;97559.63;5026979;28;20025;-57
2021/11/30 02:01:52;;;;;;;12.15;7.55;;;;;;;5.60;100.00;97550.78;5027794;28;20048;-58
2021/11/30 02:04:17;;;;;;;17.30;10.93;;;;;;;4.61;90.41;97537.03;5026922;28;20026;-60
2021/11/30 02:06:43;;;;;;;14.20;8.18;;;;;;;6.10;100.00;97529.53;5026267;28;20045;-58
2021/11/30 02:09:09;;;;;;;12.68;6.72;;;;;;;6.81;100.00;97535.06;5026523;28;20082;-58
2021/11/30 02:11:34;;;;;;;10.63;6.30;;;;;;;5.75;100.00;97531.38;5028561;28;20418;-58
2021/11/30 02:14:00;;;;;;;20.50;10.75;;;;;;;4.35;92.11;97530.75;5027626;28;20562;-58
2021/11/30 02:16:25;;;;;;;14.75;9.25;;;;;;;5.04;94.64;97525.59;5025562;28;20107;-58
2021/11/30 02:18:53;;;;;;;7.43;4.57;;;;;;;5.79;100.00;97527.84;5026654;28;20048;-57
2021/11/30 02:21:21;;;;;;;8.63;4.00;;;;;;;7.00;100.00;97525.75;5028398;28;20622;-59
2021/11/30 02:23:57;;;;;;;14.90;8.70;;;;;;;5.85;93.94;97527.66;5027767;28;20140;-59
2021/11/30 02:26:23;;;;;;;12.23;7.32;;;;;;;5.68;90.98;97522.97;5027958;28;20124;-58
2021/11/30 02:28:50;;;;;;;14.05;8.40;;;;;;;5.08;92.77;97524.63;5023322;28;20139;-58
2021/11/30 02:31:18;;;;;;;14.10;9.50;;;;;;;5.06;88.56;97521.25;5025401;28;20056;-59
2021/11/30 02:33:44;;;;;;;12.68;7.65;;;;;;;5.27;97.24;97518.97;5027171;28;20029;-58
2021/11/30 02:36:37;;;;;;;16.88;10.35;;;;;;;4.15;94.23;97527.78;5028633;28;20068;-59
2021/11/30 02:39:06;;;;;;;17.10;9.90;;;;;;;4.43;88.31;97515.94;5026019;28;20596;-59
2021/11/30 02:41:32;;;;;;;15.27;9.73;;;;;;;4.37;91.71;97515.22;5025230;28;20142;-58
2021/11/30 02:43:58;;;;;;;13.95;7.88;;;;;;;5.18;100.00;97509.72;5027647;28;20733;-57
2021/11/30 02:46:44;;;;;;;14.95;8.68;;;;;;;4.51;91.28;97507.16;5026400;28;20037;-58
2021/11/30 02:49:18;;;;;;;15.38;8.75;;;;;;;5.78;97.54;97513.19;5026510;28;20056;-59
2021/11/30 02:51:48;;;;;;;14.38;8.73;;;;;;;5.06;89.90;97503.16;5025270;28;20025;-57
2021/11/30 02:54:17;;;;;;;12.13;7.53;;;;;;;6.20;100.00;97499.88;5025782;28;20800;-57
2021/11/30 02:56:48;;;;;;;13.13;7.53;;;;;;;6.02;100.00;97503.03;5023979;28;20037;-60
2021/11/30 02:59:15;;;;;;;4.53;2.83;;;;;;;7.72;100.00;97501.59;5025807;28;20029;-58
2021/11/30 03:01:42;;;;;;;12.02;7.68;;;;;;;6.55;100.00;97500.47;5026375;28;20306;-58
2021/11/30 03:04:14;;;;;;;12.45;7.88;;;;;;;5.22;94.22;97494.09;5026120;28;20041;-59
2021/11/30 03:06:40;;;;;;;7.07;3.85;;;;;;;6.86;100.00;97491.69;5026998;28;20040;-58
2021/11/30 03:09:06;;;;;;;12.07;7.00;;;;;;;6.58;100.00;97497.81;5024758;28;20025;-58
2021/11/30 03:11:32;;;;;;;10.90;5.60;;;;;;;6.36;100.00;97489.88;5025603;28;20040;-59
2021/11/30 03:13:58;;;;;;;17.35;6.30;;;;;;;5.91;100.00;97491.22;5028027;28;20030;-58
2021/11/30 03:16:23;;;;;;;11.23;6.93;;;;;;;7.01;100.00;97485.13;5025137;28;20051;-58
2021/11/30 03:18:48;;;;;;;13.30;8.52;;;;;;;6.05;97.57;97484.81;5027118;28;20021;-60
2021/11/30 03:21:14;;;;;;;15.05;8.95;;;;;;;6.20;100.00;97481.75;5026850;28;20037;-57
2021/11/30 03:23:41;;;;;;;13.15;8.05;;;;;;;5.38;95.06;97484.13;5028472;28;20750;-60
2021/11/30 03:26:07;;;;;;;7.05;4.68;;;;;;;7.26;100.00;97490.28;5024076;28;20045;-57
2021/11/30 03:28:33;;;;;;;8.35;5.40;;;;;;;9.11;100.00;97480.44;5026133;28;20033;-58
2021/11/30 03:31:04;;;;;;;8.77;5.78;;;;;;;7.84;100.00;97477.75;5024253;28;20033;-60
2021/11/30 03:36:14;;;;;;;7.00;4.68;;;;;;;7.94;94.67;97474.78;5027538;28;20040;-59
2021/11/30 03:38:40;;;;;;;8.27;5.72;;;;;;;7.26;100.00;97482.50;5026426;28;20599;-60
2021/11/30 03:41:07;;;;;;;7.90;5.07;;;;;;;8.04;93.53;97476.13;5028262;28;20054;-58
2021/11/30 03:43:32;;;;;;;8.18;6.22;;;;;;;6.78;99.56;97475.53;5025987;28;20104;-57
2021/11/30 03:45:57;;;;;;;340.17;91.40;;;;;;;6.65;99.54;97478.53;5025928;28;20060;-60
2021/11/30 03:48:23;;;;;;;6.35;3.10;;;;;;;9.04;100.00;97475.50;5029288;28;20599;-58
2021/11/30 03:50:48;;;;;;;4.00;2.30;;;;;;;9.23;100.00;97478.16;5026757;28;20128;-59
2021/11/30 03:53:14;;;;;;;8.07;4.93;;;;;;;8.08;87.67;97486.31;5026349;28;20036;-59
2021/11/30 03:55:39;;;;;;;7.93;4.80;;;;;;;6.97;95.25;97484.38;5025722;28;20047;-60
2021/11/30 03:58:05;;;;;;;4.25;3.03;;;;;;;7.37;100.00;97477.78;5025689;28;20025;-59
2021/11/30 04:00:30;;;;;;;7.28;4.43;;;;;;;6.18;100.00;97483.53;5025763;28;20037;-59
2021/11/30 04:02:56;;;;;;;6.28;4.05;;;;;;;8.84;100.00;97470.28;5028400;28;20627;-58
2021/11/30 04:05:22;;;;;;;5.50;3.75;;;;;;;9.37;100.00;97477.53;5028597;28;20040;-59
2021/11/30 04:07:47;;;;;;;4.95;3.33;;;;;;;7.02;91.76;97486.81;5029340;28;20025;-58
2021/11/30 04:10:13;;;;;;;4.10;3.10;;;;;;;8.95;100.00;97481.13;5029055;28;20017;-59
2021/11/30 04:12:38;;;;;;;4.80;3.15;;;;;;;9.41;94.68;97486.03;5028822;28;20075;-58
2021/11/30 04:15:04;;;;;;;3.45;2.30;;;;;;;8.46;89.68;97485.75;5028953;28;20094;-59
2021/11/30 04:17:30;;;;;;;5.55;4.07;;;;;;;7.84;82.70;97482.94;5030229;28;20035;-59
2021/11/30 04:19:55;;;;;;;4.18;2.55;;;;;;;10.46;100.00;97484.69;5029794;28;20083;-60
2021/11/30 04:22:20;;;;;;;5.47;3.70;;;;;;;7.52;91.09;97490.19;5030914;28;20048;-61
2021/11/30 04:24:46;;;;;;;4.32;2.97;;;;;;;10.61;98.81;97483.09;5031997;28;20044;-58
2021/11/30 04:27:12;;;;;;;4.70;3.40;;;;;;;9.27;88.71;97469.28;5029973;28;20036;-58
2021/11/30 04:29:39;;;;;;;5.25;3.13;;;;;;;7.41;98.90;97473.34;5029589;28;20030;-58
2021/11/30 04:32:05;;;;;;;4.10;2.92;;;;;;;8.88;92.94;97464.91;5027677;28;20038;-58
2021/11/30 04:34:31;;;;;;;5.03;3.13;;;;;;;7.54;91.80;97477.16;5029958;28;20522;-58
2021/11/30 04:36:56;;;;;;;5.00;3.05;;;;;;;7.20;99.06;97480.13;5028982;28;20045;-58
2021/11/30 04:39:22;;;;;;;5.10;3.13;;;;;;;7.98;97.58;97484.16;5029336;28;20029;-60
2021/11/30 04:41:47;;;;;;;4.43;3.15;;;;;;;7.65;90.64;97476.75;5029161;28;20712;-58
2021/11/30 04:44:13;;;;;;;4.55;2.97;;;;;;;7.07;98.13;97480.56;5027208;28;20377;-59
2021/11/30 04:47:03;;;;;;;5.80;3.67;;;;;;;7.35;89.77;97474.38;5026967;28;20060;-58
2021/11/30 04:49:39;;;;;;;5.35;3.42;;;;;;;8.89;90.34;97468.34;5028336;28;20871;-58
2021/11/30 04:52:08;;;;;;;7.78;4.18;;;;;;;8.94;97.31;97461.19;5029542;28;20483;-58
2021/11/30 04:54:34;;;;;;;4.38;2.42;;;;;;;8.42;100.00;97460.81;5029150;28;20033;-58
2021/11/30 04:56:59;;;;;;;9.07;3.97;;;;;;;8.21;100.00;97462.47;5026572;28;20605;-59
2021/11/30 04:59:25;;;;;;;4.60;2.85;;;;;;;9.51;92.79;97452.66;5028854;28;20088;-60
2021/11/30 05:01:50;;;;;;;5.20;2.92;;;;;;;7.88;87.78;97448.19;5028901;28;20064;-59
2021/11/30 05:04:16;;;;;;;4.65;2.80;;;;;;;8.98;96.41;97454.13;5028871;28;20530;-58
2021/11/30 05:06:43;;;;;;;6.90;3.80;;;;;;;8.11;96.29;97446.41;5027937;28;20053;-59
2021/11/30 05:09:10;;;;;;;4.63;3.13;;;;;;;9.80;100.00;97449.53;5030797;28;20136;-58
2021/11/30 05:11:37;;;;;;;5.40;3.78;;;;;;;8.22;82.28;97440.78;5028053;28;20496;-58
2021/11/30 05:14:03;;;;;;;5.05;3.00;;;;;;;7.88;88.66;97431.72;5026850;28;20495;-61
2021/11/30 05:16:29;;;;;;;6.03;3.28;;;;;;;9.92;100.00;97429.88;5027457;28;20160;-59
2021/11/30 05:18:54;;;;;;;5.10;2.72;;;;;;;9.78;93.37;97424.50;5031081;28;20727;-58
2021/11/30 05:21:20;;;;;;;3.70;2.38;;;;;;;9.83;86.46;97425.97;5029149;28;20033;-61
2021/11/30 05:23:45;;;;;;;7.53;3.80;;;;;;;6.65;84.43;97431.88;5032192;28;20810;-59
2021/11/30 05:26:11;;;;;;;4.95;3.10;;;;;;;9.29;79.24;97435.41;5029890;28;20099;-58
2021/11/30 05:28:39;;;;;;;5.47;2.70;;;;;;;8.30;89.28;97443.91;5029331;28;20037;-58
2021/11/30 05:31:07;;;;;;;3.33;2.33;;;;;;;9.32;91.41;97440.47;5027558;28;20473;-58
2021/11/30 05:33:33;;;;;;;6.97;2.88;;;;;;;8.66;88.90;97432.94;5027271;28;20024;-60
2021/11/30 05:36:01;;;;;;;5.35;2.97;;;;;;;8.40;91.57;97428.78;5028457;28;20053;-61
2021/11/30 05:38:26;;;;;;;4.80;3.22;;;;;;;8.76;87.16;97436.00;5030678;28;20064;-59
2021/11/30 05:40:52;;;;;;;3.95;2.30;;;;;;;11.00;100.00;97429.81;5025669;28;20662;-60
2021/11/30 05:43:18;;;;;;;4.28;2.90;;;;;;;10.25;80.48;97423.13;5027963;28;20368;-61
2021/11/30 05:45:44;;;;;;;5.57;3.08;;;;;;;8.22;85.91;97436.44;5027749;28;20095;-59
2021/11/30 05:48:10;;;;;;;5.60;3.35;;;;;;;8.22;83.41;97428.63;5030720;28;20033;-60
2021/11/30 05:50:36;;;;;;;5.60;3.15;;;;;;;8.22;84.95;97431.25;5026030;28;20037;-61
2021/11/30 05:53:03;;;;;;;5.50;2.85;;;;;;;10.69;88.61;97430.53;5027540;28;20770;-60
2021/11/30 05:55:28;;;;;;;6.15;2.88;;;;;;;7.72;84.00;97431.50;5026971;28;20045;-60
2021/11/30 05:57:54;;;;;;;5.35;3.20;;;;;;;6.92;87.67;97430.09;5027051;28;20056;-61
2021/11/30 06:00:20;;;;;;;4.72;2.35;;;;;;;8.43;100.00;97420.91;5030002;28;20403;-57
2021/11/30 06:05:18;;;;;;;3.33;1.90;;;;;;;10.12;100.00;97426.31;5030724;28;20499;-58
2021/11/30 06:07:43;;;;;;;3.63;2.40;;;;;;;9.27;88.41;97413.81;5028111;28;20964;-57
2021/11/30 06:10:09;;;;;;;5.15;3.20;;;;;;;8.03;78.84;97419.88;5029261;28;20029;-57
2021/11/30 06:12:34;;;;;;;3.72;2.45;;;;;;;9.17;79.64;97415.13;5028614;28;20459;-59
2021/11/30 06:15:00;;;;;;;4.63;2.35;;;;;;;7.02;99.17;97409.88;5031026;28;20025;-58
2021/11/30 06:17:25;;;;;;;6.40;2.88;;;;;;;9.00;96.97;97403.69;5029480;28;20145;-57
2021/11/30 06:19:50;;;;;;;7.30;4.30;;;;;;;5.35;86.36;97403.25;5029354;28;20398;-58
2021/11/30 06:22:16;;;;;;;10.55;3.80;;;;;;;6.84;96.58;97406.19;5029786;28;20133;-59
2021/11/30 06:24:41;;;;;;;7.82;3.80;;;;;;;7.37;100.00;97401.69;5029973;28;20017;-58
2021/11/30 06:27:07;;;;;;;8.38;3.88;;;;;;;6.82;98.64;97396.75;5028818;28;20041;-57
2021/11/30 06:29:32;;;;;;;6.70;3.20;;;;;;;7.31;97.82;97394.97;5029780;28;20112;-57
2021/11/30 06:31:57;;;;;;;7.63;3.00;;;;;;;8.49;96.30;97385.09;5028946;28;20041;-59
2021/11/30 06:34:23;;;;;;;5.47;3.30;;;;;;;8.48;100.00;97377.38;5028690;28;20415;-57
2021/11/30 06:36:48;;;;;;;6.50;4.30;;;;;;;7.43;86.06;97383.31;5028058;28;20041;-58
2021/11/30 06:39:14;;;;;;;6.55;3.00;;;;;;;8.89;100.00;97377.31;5029804;28;20111;-59
2021/11/30 06:41:39;;;;;;;6.10;3.03;;;;;;;8.11;100.00;97366.72;5027316;28;20124;-58
2021/11/30 06:44:05;;;;;;;5.82;2.40;;;;;;;12.15;97.58;97367.88;5031132;28;20056;-58
2021/11/30 06:46:30;;;;;;;3.40;2.10;;;;;;;13.90;93.97;97366.88;5029080;28;20077;-58
2021/11/30 06:48:56;;;;;;;7.10;2.65;;;;;;;10.68;81.56;97353.19;5030076;28;20054;-58
2021/11/30 06:51:21;;;;;;;5.05;2.78;;;;;;;12.19;100.00;97365.94;5030889;28;20120;-59
2021/11/30 06:53:47;;;;;;;7.05;2.95;;;;;;;10.80;89.99;97366.44;5033601;28;20041;-58
2021/11/30 06:56:12;;;;;;;7.03;3.08;;;;;;;12.20;100.00;97354.53;5029262;28;20419;-60
2021/11/30 06:58:38;;;;;;;5.95;2.92;;;;;;;13.22;89.22;97347.53;5030646;28;20090;-58
2021/11/30 07:01:05;;;;;;;6.97;3.67;;;;;;;4.41;84.08;97364.50;5027711;28;20694;-58
2021/11/30 07:03:30;;;;;;;8.88;4.53;;;;;;;2.49;96.51;97359.38;5028958;28;20032;-57
2021/11/30 07:06:11;;;;;;;16.60;4.60;;;;;;;2.26;99.56;97359.81;5029778;28;20820;-57
2021/11/30 07:11:21;;;;;;;16.10;5.50;;;;;;;4.46;100.00;97359.22;5028411;28;20047;-59
2021/11/30 07:13:46;;;;;;;10.63;4.85;;;;;;;3.77;100.00;97344.59;5027101;28;20029;-57
2021/11/30 07:16:12;;;;;;;15.07;4.82;;;;;;;3.34;100.00;97344.75;5031302;28;20037;-59
2021/11/30 07:18:37;;;;;;;12.80;4.57;;;;;;;6.11;100.00;97350.81;5028387;28;20461;-57
2021/11/30 07:21:03;;;;;;;14.25;5.25;;;;;;;14.87;62.87;97336.00;5026287;28;20033;-59
2021/11/30 07:23:30;;;;;;;8.35;3.42;;;;;;;7.69;84.87;97340.75;5031433;28;20104;-57
2021/11/30 07:25:57;;;;;;;12.25;5.25;;;;;;;6.94;81.28;97329.75;5028337;28;20045;-57
2021/11/30 07:28:29;;;;;;;10.50;4.60;;;;;;;6.36;85.92;97327.53;5027498;28;20048;-58
2021/11/30 07:30:55;;;;;;;;;;;;;;;6.53;91.39;97324.34;5030635;28;20140;-58
2021/11/30 07:33:21;;;;;;;6.47;3.65;;;;;;;6.97;83.06;97322.78;5028557;28;19987;-58
2021/11/30 07:35:47;;;;;;;12.27;4.45;;;;;;;6.48;78.46;97307.28;5028625;28;20037;-58
2021/11/30 07:38:12;;;;;;;9.00;3.78;;;;;;;6.49;87.18;97312.41;5032479;28;20702;-59
2021/11/30 07:40:37;;;;;;;10.25;3.90;;;;;;;6.27;85.88;97306.31;5033257;28;20048;-59
2021/11/30 07:43:03;;;;;;;10.48;4.13;;;;;;;7.55;86.93;97302.38;5034270;28;20087;-58
2021/11/30 07:45:28;;;;;;;6.47;3.55;;;;;;;7.14;79.62;97300.50;5031925;28;20120;-58
2021/11/30 07:47:54;;;;;;;5.18;3.00;;;;;;;7.16;100.00;97289.22;5034387;28;20673;-59
2021/11/30 07:50:19;;;;;;;7.35;3.70;;;;;;;6.08;88.09;97287.94;5032299;28;20032;-57
2021/11/30 07:52:45;;;;;;;5.80;3.78;;;;;;;6.26;85.69;97287.31;5033075;28;20134;-57
2021/11/30 07:55:14;;;;;;;7.03;3.28;;;;;;;7.28;87.66;97280.97;5032113;28;20026;-58
2021/11/30 07:57:40;;;;;;;6.22;3.53;;;;;;;5.88;80.06;97283.41;5031900;28;20689;-60
2021/11/30 08:00:12;;;;;;;9.15;3.70;;;;;;;7.06;91.32;97270.59;5033406;28;20032;-58
2021/11/30 08:02:38;;;;;;;6.20;3.50;;;;;;;6.20;83.14;97271.16;5032781;28;20045;-58
2021/11/30 08:05:04;;;;;;;5.78;3.58;;;;;;;7.19;88.51;97260.59;5033547;28;20039;-60
2021/11/30 08:07:30;;;;;;;5.25;2.97;;;;;;;6.43;95.88;97257.38;5031536;28;20416;-58
2021/11/30 08:09:56;;;;;;;5.78;2.67;;;;;;;6.64;90.98;97251.41;5032308;28;20040;-60
2021/11/30 08:12:21;;;;;;;5.97;2.95;;;;;;;5.73;87.50;97261.47;5032679;28;20033;-58
2021/11/30 08:14:47;;;;;;;4.85;2.80;;;;;;;5.82;95.11;97255.16;5031899;28;20101;-59
2021/11/30 08:17:16;;;;;;;3.63;2.35;;;;;;;6.96;91.55;97254.53;5033937;28;20025;-58
2021/11/30 08:19:42;;;;;;;5.20;2.28;;;;;;;8.43;100.00;97267.56;5034273;28;20112;-57
2021/11/30 08:22:08;;;;;;;5.13;2.50;;;;;;;8.48;85.81;97265.63;5030582;28;20033;-57
2021/11/30 08:24:35;;;;;;;5.70;2.22;;;;;;;7.68;92.38;97258.59;5033288;28;20087;-58
2021/11/30 08:27:01;;;;;;;3.88;2.30;;;;;;;6.23;87.20;97258.94;5031972;28;20123;-58
2021/11/30 08:29:26;;;;;;;5.38;2.30;;;;;;;8.40;100.00;97252.94;5040416;28;20032;-58
2021/11/30 08:31:52;;;;;;;4.60;2.10;;;;;;;8.01;98.49;97245.94;5032067;28;20044;-60
2021/11/30 08:34:17;;;;;;;4.95;2.33;;;;;;;6.59;86.11;97249.88;5031314;28;20025;-58
2021/11/30 08:36:43;;;;;;;4.03;2.10;;;;;;;5.80;91.41;97243.09;5030015;28;20153;-58
2021/11/30 08:39:08;;;;;;;6.05;2.28;;;;;;;6.65;92.57;97245.31;5032200;28;20611;-58
2021/11/30 08:41:34;;;;;;;3.88;1.83;;;;;;;8.21;89.04;97233.84;5031250;28;20113;-58
2021/11/30 08:43:59;;;;;;;5.43;2.45;;;;;;;6.38;93.97;97242.00;5029687;28;20517;-59
2021/11/30 08:46:25;;;;;;;4.65;2.10;;;;;;;7.02;93.99;97238.75;5032721;28;20124;-57
2021/11/30 08:48:50;;;;;;;4.35;1.98;;;;;;;6.95;100.00;97251.09;5034021;28;20017;-57
2021/11/30 08:51:16;;;;;;;3.53;1.90;;;;;;;6.29;100.00;97250.13;5032083;28;20045;-58
2021/11/30 08:53:41;;;;;;;4.57;2.25;;;;;;;7.03;100.00;97240.41;5031226;28;20048;-58
2021/11/30 08:56:07;;;;;;;4.78;2.35;;;;;;;6.92;100.00;97234.81;5032358;28;20046;-58
2021/11/30 08:58:34;;;;;;;8.40;2.38;;;;;;;5.87;95.68;97230.81;5033098;28;20033;-57
2021/11/30 09:01:00;;;;;;;4.90;2.60;;;;;;;5.14;93.93;97227.16;5033551;28;20038;-59
2021/11/30 09:03:25;;;;;;;5.40;2.67;;;;;;;5.50;95.68;97236.38;5032873;28;20031;-58
2021/11/30 09:05:51;;;;;;;5.00;2.55;;;;;;;6.74;100.00;97224.22;5034949;28;20044;-56
2021/11/30 09:08:16;;;;;;;4.13;2.22;;;;;;;6.15;98.08;97227.28;5032000;28;20028;-57
2021/11/30 09:10:42;;;;;;;7.18;2.60;;;;;;;9.22;100.00;97216.25;5031087;28;20037;-59
2021/11/30 09:13:08;;;;;;;5.13;2.17;;;;;;;6.13;100.00;97232.50;5034165;28;20099;-58
2021/11/30 09:15:34;;;;;;;5.57;2.20;;;;;;;5.07;95.71;97230.00;5032233;28;20348;-58
2021/11/30 09:18:00;;;;;;;5.25;2.00;;;;;;;4.96;100.00;97231.19;5032904;28;20564;-59
2021/11/30 09:20:27;;;;;;;3.17;1.90;;;;;;;5.48;100.00;97233.00;5030667;28;20036;-59
2021/11/30 09:22:54;;;;;;;3.72;1.92;;;;;;;5.14;100.00;97219.41;5032105;28;20033;-57
2021/11/30 09:25:20;;;;;;;3.35;2.00;;;;;;;5.47;100.00;97231.31;5033913;28;20140;-58
2021/11/30 09:27:47;;;;;;;6.35;2.00;;;;;;;5.70;100.00;97223.63;5033240;28;20650;-57
2021/11/30 09:30:14;;;;;;;3.70;2.00;;;;;;;3.98;96.47;97213.38;5031526;28;20040;-58
2021/11/30 09:32:41;;;;;;;5.82;1.90;;;;;;;7.70;100.00;97216.09;5032854;28;20026;-59
2021/11/30 09:35:10;;;;;;;3.72;1.80;;;;;;;6.75;100.00;97200.00;5032704;28;20022;-59
2021/11/30 09:37:39;;;;;;;3.38;1.80;;;;;;;7.09;95.50;97200.44;5032795;28;20377;-57
2021/11/30 09:40:07;;;;;;;3.25;1.80;;;;;;;7.05;97.57;97202.31;5031750;28;20038;-57
2021/11/30 09:42:33;;;;;;;4.18;2.10;;;;;;;6.33;98.37;97197.28;5031102;28;20053;-58
2021/11/30 09:45:04;;;;;;;3.15;1.70;;;;;;;7.62;100.00;97184.41;5032740;28;20067;-57
2021/11/30 09:47:30;;;;;;;3.05;1.77;;;;;;;5.07;94.78;97186.88;5031987;28;20156;-57
2021/11/30 09:49:56;;;;;;;3.10;1.75;;;;;;;5.67;94.80;97181.50;5029116;28;20112;-57
2021/11/30 09:52:21;;;;;;;5.20;1.90;;;;;;;5.72;90.00;97175.25;5028185;28;20048;-57
2021/11/30 09:54:46;;;;;;;4.05;2.00;;;;;;;6.40;100.00;97172.03;5028954;28;20025;-58
2021/11/30 09:57:12;;;;;;;3.60;1.83;;;;;;;6.11;95.61;97184.28;5028545;28;20046;-58
2021/11/30 09:59:40;;;;;;;2.92;1.80;;;;;;;5.46;98.29;97168.41;5032173;28;20033;-56
2021/11/30 10:02:08;;;;;;;4.55;1.75;;;;;;;5.13;100.00;97167.78;5029335;28;20119;-57
2021/11/30 10:04:35;;;;;;;4.00;1.80;;;;;;;6.94;100.00;97153.47;5035862;28;20095;-56
2021/11/30 10:07:01;;;;;;;4.25;1.80;;;;;;;8.55;100.00;97144.88;5029750;28;20041;-57
2021/11/30 10:09:27;;;;;;;3.70;1.90;;;;;;;6.13;92.89;97148.81;5027999;28;20033;-57
2021/11/30 10:11:58;;;;;;;4.15;2.20;;;;;;;5.88;100.00;97154.00;5029495;28;20041;-59
2021/11/30 10:14:35;;;;;;;3.25;1.83;;;;;;;5.10;95.64;97148.03;5031596;28;20029;-56
2021/11/30 10:17:13;;;;;;;4.07;1.60;;;;;;;7.07;100.00;97148.63;5028435;28;20061;-59
2021/11/30 10:19:40;;;;;;;3.25;1.67;;;;;;;6.26;89.97;97142.28;5028763;28;20696;-56
2021/11/30 10:22:07;;;;;;;5.38;2.17;;;;;;;5.95;93.83;97142.53;5027482;28;20033;-57
2021/11/30 10:24:33;;;;;;;3.47;2.42;;;;;;;5.05;92.74;97126.66;5030650;28;20044;-58
2021/11/30 10:26:59;;;;;;;4.85;1.85;;;;;;;7.37;100.00;97129.28;5028429;28;20041;-58
2021/11/30 10:29:25;;;;;;;5.65;1.90;;;;;;;7.51;100.00;97125.19;5029002;28;20563;-57
2021/11/30 10:31:53;;;;;;;2.90;1.70;;;;;;;6.74;100.00;97112.78;5028296;28;20561;-59
2021/11/30 10:34:21;;;;;;;3.40;1.77;;;;;;;5.12;97.25;97110.03;5029996;28;20175;-56
2021/11/30 10:36:58;;;;;;;5.35;1.90;;;;;;;5.36;100.00;97120.47;5029684;28;20512;-58
2021/11/30 10:39:33;;;;;;;9.07;2.30;;;;;;;6.03;100.00;97116.41;5029826;28;20021;-57
2021/11/30 10:42:18;;;;;;;5.65;2.00;;;;;;;5.67;100.00;97116.81;5027814;28;20132;-58
2021/11/30 10:44:47;;;;;;;4.05;1.90;;;;;;;5.03;100.00;97100.84;5028251;28;20429;-56
2021/11/30 10:47:18;;;;;;;2.90;1.70;;;;;;;8.85;100.00;97108.75;5028069;28;20037;-58
2021/11/30 10:49:52;;;;;;;2.75;1.80;;;;;;;6.55;100.00;97101.47;5028628;28;20021;-57
2021/11/30 10:52:24;;;;;;;4.55;1.77;;;;;;;5.95;99.18;97096.81;5031540;28;20036;-58
2021/11/30 10:54:51;;;;;;;4.43;1.98;;;;;;;7.16;100.00;97094.72;5029427;28;20026;-58
2021/11/30 10:57:17;;;;;;;4.47;1.90;;;;;;;8.42;100.00;97104.78;5035597;28;20033;-57
2021/11/30 10:59:44;;;;;;;3.70;1.77;;;;;;;8.02;100.00;97091.81;5029768;28;20029;-56
2021/11/30 11:02:12;;;;;;;2.70;1.70;;;;;;;6.41;100.00;97103.75;5026812;28;20037;-57
2021/11/30 11:04:37;;;;;;;3.72;1.90;;;;;;;7.00;100.00;97082.38;5028494;28;20108;-59
2021/11/30 11:07:12;;;;;;;5.00;1.90;;;;;;;7.00;100.00;97073.75;5030622;28;20120;-57
2021/11/30 11:09:47;;;;;;;3.78;1.80;;;;;;;6.27;100.00;97073.22;5030227;28;20016;-58
2021/11/30 11:12:23;;;;;;;3.28;1.80;;;;;;;5.82;93.95;97076.59;5033668;28;20037;-59
2021/11/30 11:14:49;;;;;;;3.35;1.70;;;;;;;4.74;96.82;97075.13;5034032;28;20025;-56
2021/11/30 11:17:32;;;;;;;2.50;1.55;;;;;;;8.24;100.00;97057.09;5032887;28;20044;-57
2021/11/30 11:19:59;;;;;;;2.40;1.40;;;;;;;6.56;100.00;97064.28;5033736;28;20028;-57
2021/11/30 11:22:28;;;;;;;2.97;1.70;;;;;;;6.91;99.36;97070.66;5030635;28;20863;-56
2021/11/30 11:24:59;;;;;;;2.65;1.60;;;;;;;6.16;100.00;97063.28;5034046;28;20060;-57
2021/11/30 11:27:39;;;;;;;3.30;1.60;;;;;;;5.05;100.00;97059.44;5041431;28;20095;-57
2021/11/30 11:30:08;;;;;;;3.00;1.67;;;;;;;5.50;100.00;97053.59;5031739;28;20026;-57
2021/11/30 11:32:33;;;;;;;2.83;1.67;;;;;;;5.71;100.00;97043.34;5039624;28;20486;-56
2021/11/30 11:34:59;;;;;;;3.90;1.70;;;;;;;7.94;100.00;97042.00;5035532;28;20021;-57
2021/11/30 11:37:25;;;;;;;4.20;1.63;;;;;;;10.28;96.64;97034.66;5031181;28;20037;-57
2021/11/30 11:39:52;;;;;;;3.38;1.50;;;;;;;7.51;98.80;97031.78;5030812;28;20095;-58
2021/11/30 11:44:56;;;;;;;6.13;2.55;;;;;;;5.91;99.66;97025.34;5415503;23;20046;-57
2021/11/30 11:47:24;;;;;;;7.10;2.88;;;;;;;6.22;100.00;97025.94;4969676;28;20759;-57